Time;durP1;ratioP1;P1;durP2;ratioP2;P2;SDS_P1;SDS_P2;PMS_P1;PMS_P2;Temp;Humidity;BMP_temperature;BMP_pressure;BME280_temperature;BME280_humidity;BME280_pressure;Samples;Min_cycle;Max_cycle;Signal;HPM_P1;HPM_P2
2021/08/07 00:00:58;;;;;;;;;;;;;;;29.79;37.98;99768.06;5098444;28;843;-32
2021/08/07 00:03:23;;;;;;;;;;;;;;;29.84;38.00;99768.22;5098484;28;830;-31
2021/08/07 00:05:49;;;;;;;;;;;;;;;29.90;37.81;99761.88;5097945;28;1122;-37
2021/08/07 00:08:14;;;;;;;;;;;;;;;29.86;38.09;99774.25;5098191;28;1976;-30
2021/08/07 00:10:39;;;;;;;;;;;;;;;29.92;37.86;99778.75;5098382;28;755;-37
2021/08/07 00:13:04;;;;;;;;;;;;;;;29.96;37.95;99772.88;5098170;28;767;-38
2021/08/07 00:15:30;;;;;;;;;;;;;;;29.91;38.05;99771.66;5098456;28;755;-32
2021/08/07 00:17:55;;;;;;;;;;;;;;;29.86;38.44;99768.81;5097936;28;820;-38
2021/08/07 00:20:20;;;;;;;;;;;;;;;29.91;38.17;99774.38;5097374;28;911;-29
2021/08/07 00:22:52;;;;;;;;;;;;;;;29.89;38.28;99776.50;5098004;28;863;-34
2021/08/07 00:25:17;;;;;;;;;;;;;;;29.88;38.31;99774.81;5086515;28;1143;-31
2021/08/07 00:27:42;;;;;;;;;;;;;;;29.96;38.09;99779.16;5077040;28;895;-32
2021/08/07 00:30:08;;;;;;;;;;;;;;;29.88;38.69;99779.44;5077522;28;1894;-29
2021/08/07 00:32:33;;;;;;;;;;;;;;;29.99;38.13;99785.97;5077646;28;752;-32
2021/08/07 00:34:59;;;;;;;;;;;;;;;29.93;38.35;99785.00;5082440;28;1010;-36
2021/08/07 00:37:27;;;;;;;;;;;;;;;29.77;38.74;99781.00;5097935;28;726;-30
2021/08/07 00:39:52;;;;;;;;;;;;;;;29.86;38.86;99782.38;5097999;28;747;-37
2021/08/07 00:42:18;;;;;;;;;;;;;;;29.87;38.55;99777.78;5096857;28;851;-31
2021/08/07 00:44:43;;;;;;;;;;;;;;;29.91;38.60;99777.09;5097561;28;829;-32
2021/08/07 00:47:08;;;;;;;;;;;;;;;29.90;38.48;99772.72;5097644;28;767;-35
2021/08/07 00:49:33;;;;;;;;;;;;;;;29.88;38.83;99782.97;5096857;28;1966;-29
2021/08/07 00:51:59;;;;;;;;;;;;;;;30.02;38.27;99780.94;5097573;28;922;-38
2021/08/07 00:54:24;;;;;;;;;;;;;;;30.00;38.59;99771.38;5078258;28;1112;-39
2021/08/07 00:56:49;;;;;;;;;;;;;;;29.94;38.59;99773.13;5096889;28;830;-38
2021/08/07 00:59:15;;;;;;;;;;;;;;;29.96;38.54;99770.16;5097955;28;823;-32
2021/08/07 01:01:43;;;;;;;;;;;;;;;29.90;38.89;99770.03;5097095;28;756;-38
2021/08/07 01:04:09;;;;;;;;;;;;;;;29.89;39.09;99770.25;5079100;28;784;-38
2021/08/07 01:06:41;;;;;;;;;;;;;;;29.96;38.78;99767.47;5096800;28;1017;-31
2021/08/07 01:09:19;;;;;;;;;;;;;;;30.00;38.85;99772.19;5096589;28;1913;-38
2021/08/07 01:11:56;;;;;;;;;;;;;;;30.04;38.57;99775.28;5078845;28;855;-39
2021/08/07 01:14:23;;;;;;;;;;;;;;;30.01;38.62;99773.84;5079411;28;810;-38
2021/08/07 01:16:48;;;;;;;;;;;;;;;30.02;38.75;99785.53;5079033;28;836;-39
2021/08/07 01:19:14;;;;;;;;;;;;;;;30.01;38.84;99778.47;5078772;28;791;-30
2021/08/07 01:21:50;;;;;;;;;;;;;;;30.09;38.53;99782.75;5096243;28;1002;-33
2021/08/07 01:24:21;;;;;;;;;;;;;;;30.00;38.87;99793.88;5076380;28;1163;-32
2021/08/07 01:27:05;;;;;;;;;;;;;;;29.99;38.95;99791.41;5058365;28;919;-39
2021/08/07 01:29:30;;;;;;;;;;;;;;;30.02;38.88;99804.50;5058904;28;1898;-39
2021/08/07 01:31:55;;;;;;;;;;;;;;;30.01;38.73;99800.16;5076248;28;827;-31
2021/08/07 01:34:21;;;;;;;;;;;;;;;29.93;39.16;99802.09;5075884;28;993;-33
2021/08/07 01:36:46;;;;;;;;;;;;;;;30.01;38.85;99800.97;5078112;28;947;-29
2021/08/07 01:39:11;;;;;;;;;;;;;;;30.02;38.88;99799.09;5096935;28;887;-37
2021/08/07 01:41:37;;;;;;;;;;;;;;;29.97;39.18;99804.34;5096475;28;791;-36
2021/08/07 01:44:02;;;;;;;;;;;;;;;29.98;38.98;99787.06;5096286;28;835;-31
2021/08/07 01:46:29;;;;;;;;;;;;;;;30.08;38.66;99791.94;5096644;28;992;-35
2021/08/07 01:48:55;;;;;;;;;;;;;;;30.03;38.93;99776.34;5078201;28;1972;-28
2021/08/07 01:51:22;;;;;;;;;;;;;;;29.97;39.04;99777.25;5077782;28;990;-38
2021/08/07 01:53:48;;;;;;;;;;;;;;;30.01;39.04;99771.13;5078581;28;891;-32
2021/08/07 01:56:17;;;;;;;;;;;;;;;29.94;39.18;99770.41;5095533;28;1289;-38
2021/08/07 01:58:44;;;;;;;;;;;;;;;30.01;38.87;99763.00;5099129;28;771;-34
2021/08/07 02:01:10;;;;;;;;;;;;;;;29.96;38.88;99745.78;5098617;28;820;-38
2021/08/07 02:03:35;;;;;;;;;;;;;;;29.99;38.88;99738.00;5116451;28;760;-39
2021/08/07 02:06:01;;;;;;;;;;;;;;;30.01;38.98;99727.75;5085082;28;1163;-33
2021/08/07 02:08:26;;;;;;;;;;;;;;;29.92;39.26;99727.25;5100551;28;1894;-31
2021/08/07 02:10:51;;;;;;;;;;;;;;;29.98;39.05;99730.09;5100676;28;740;-39
2021/08/07 02:13:17;;;;;;;;;;;;;;;30.00;39.00;99746.97;5082246;28;796;-39
2021/08/07 02:15:42;;;;;;;;;;;;;;;29.98;39.15;99759.94;5082040;28;1015;-33
2021/08/07 02:18:07;;;;;;;;;;;;;;;29.90;39.41;99770.03;5082060;28;819;-32
2021/08/07 02:20:33;;;;;;;;;;;;;;;29.90;39.59;99771.88;5081940;28;938;-33
2021/08/07 02:22:58;;;;;;;;;;;;;;;29.93;39.24;99774.16;5100493;28;736;-34
2021/08/07 02:25:23;;;;;;;;;;;;;;;29.94;39.31;99779.38;5099948;28;1127;-35
2021/08/07 02:27:49;;;;;;;;;;;;;;;29.94;39.12;99783.97;5082418;28;779;-39
2021/08/07 02:30:14;;;;;;;;;;;;;;;29.96;39.07;99786.44;5081788;28;1905;-27
2021/08/07 02:32:40;;;;;;;;;;;;;;;30.08;38.72;99787.31;5099956;28;859;-40
2021/08/07 02:35:06;;;;;;;;;;;;;;;30.02;38.92;99780.09;5100795;28;1025;-34
2021/08/07 02:37:31;;;;;;;;;;;;;;;29.94;39.33;99790.22;5082159;28;791;-31
2021/08/07 02:39:57;;;;;;;;;;;;;;;29.98;39.33;99787.06;5099936;28;783;-40
2021/08/07 02:42:22;;;;;;;;;;;;;;;29.90;39.50;99789.00;5081826;28;859;-39
2021/08/07 02:44:47;;;;;;;;;;;;;;;29.97;39.30;99797.06;5081528;28;776;-32
2021/08/07 02:47:12;;;;;;;;;;;;;;;30.03;38.97;99795.34;5081430;28;784;-39
2021/08/07 02:49:38;;;;;;;;;;;;;;;30.02;38.90;99799.94;5081741;28;1977;-32
2021/08/07 02:52:03;;;;;;;;;;;;;;;29.68;38.98;99815.69;5099814;28;807;-38
2021/08/07 02:54:28;;;;;;;;;;;;;;;29.80;39.13;99816.63;5099032;28;1004;-35
2021/08/07 02:56:54;;;;;;;;;;;;;;;29.96;39.12;99832.53;5081634;28;783;-39
2021/08/07 02:59:20;;;;;;;;;;;;;;;29.97;39.12;99832.31;5080755;28;840;-32
2021/08/07 03:01:45;;;;;;;;;;;;;;;29.94;39.30;99841.72;5081835;28;755;-39
2021/08/07 03:04:11;;;;;;;;;;;;;;;29.94;39.28;99833.59;5099128;28;820;-25
2021/08/07 03:06:36;;;;;;;;;;;;;;;29.96;39.18;99855.06;5099252;28;997;-33
2021/08/07 03:09:01;;;;;;;;;;;;;;;29.96;39.39;99856.94;5099311;28;1977;-32
2021/08/07 03:11:27;;;;;;;;;;;;;;;30.02;39.04;99848.72;5099528;28;776;-31
2021/08/07 03:13:52;;;;;;;;;;;;;;;29.57;38.79;99850.59;5099727;28;792;-33
2021/08/07 03:16:17;;;;;;;;;;;;;;;29.16;37.29;99846.53;5098640;28;859;-34
2021/08/07 03:18:42;;;;;;;;;;;;;;;28.92;37.80;99847.06;5098194;28;807;-31
2021/08/07 03:21:08;;;;;;;;;;;;;;;28.72;37.68;99848.00;5099001;28;951;-31
2021/08/07 03:23:33;;;;;;;;;;;;;;;28.68;36.47;99852.19;5097496;28;1087;-34
2021/08/07 03:25:58;;;;;;;;;;;;;;;28.70;37.36;99857.38;5081598;28;1194;-35
2021/08/07 03:28:24;;;;;;;;;;;;;;;28.63;36.37;99864.72;5078971;28;1894;-35
2021/08/07 03:30:49;;;;;;;;;;;;;;;28.67;36.65;99879.47;5078387;28;772;-29
2021/08/07 03:33:14;;;;;;;;;;;;;;;28.67;36.61;99879.47;5078910;28;792;-33
2021/08/07 03:35:39;;;;;;;;;;;;;;;28.56;36.40;99894.50;5089475;28;1011;-35
2021/08/07 03:38:05;;;;;;;;;;;;;;;28.63;36.33;99883.66;5098667;28;839;-36
2021/08/07 03:40:30;;;;;;;;;;;;;;;28.58;36.40;99890.53;5098648;28;862;-37
2021/08/07 03:42:55;;;;;;;;;;;;;;;28.51;36.68;99892.41;5098815;28;803;-32
2021/08/07 03:45:22;;;;;;;;;;;;;;;28.60;39.08;99926.31;5091976;28;1200;-33
2021/08/07 03:47:51;;;;;;;;;;;;;;;28.92;37.02;99922.03;5078443;28;734;-32
2021/08/07 03:50:17;;;;;;;;;;;;;;;28.65;36.51;99914.84;5086468;28;1955;-38
2021/08/07 03:52:42;;;;;;;;;;;;;;;28.93;35.62;99929.09;5098381;28;507;-33
2021/08/07 03:55:08;;;;;;;;;;;;;;;29.02;34.79;99921.59;5097746;28;1024;-32
2021/08/07 03:57:45;;;;;;;;;;;;;;;29.05;34.41;99919.28;5098703;28;823;-30
2021/08/07 04:00:10;;;;;;;;;;;;;;;29.14;34.44;99921.75;5098828;28;784;-32
2021/08/07 04:02:36;;;;;;;;;;;;;;;28.04;35.27;99917.69;5098275;28;797;-32
2021/08/07 04:05:01;;;;;;;;;;;;;;;27.32;35.55;99907.44;5097917;28;970;-37
2021/08/07 04:07:26;;;;;;;;;;;;;;;26.99;36.41;99912.50;5098462;28;784;-32
2021/08/07 04:09:51;;;;;;;;;;;;;;;27.16;36.67;99922.16;5098083;28;1977;-30
2021/08/07 04:12:17;;;;;;;;;;;;;;;27.37;35.76;99931.94;5098746;28;815;-31
2021/08/07 04:14:42;;;;;;;;;;;;;;;27.37;35.39;99930.09;5098235;28;878;-33
2021/08/07 04:17:07;;;;;;;;;;;;;;;27.30;35.61;99950.00;5098223;28;760;-29
2021/08/07 04:19:33;;;;;;;;;;;;;;;27.31;35.22;99944.38;5097811;28;927;-33
2021/08/07 04:21:58;;;;;;;;;;;;;;;27.09;35.58;99947.22;5098347;28;722;-33
2021/08/07 04:24:23;;;;;;;;;;;;;;;27.05;35.65;99950.53;5097724;28;1104;-32
2021/08/07 04:26:48;;;;;;;;;;;;;;;27.01;35.88;99958.19;5097871;28;891;-33
2021/08/07 04:29:14;;;;;;;;;;;;;;;27.14;35.58;99954.75;5097948;28;1964;-37
2021/08/07 04:31:39;;;;;;;;;;;;;;;27.25;35.69;99947.91;5097733;28;750;-38
2021/08/07 04:34:04;;;;;;;;;;;;;;;27.32;35.63;99948.78;5097464;28;847;-32
2021/08/07 04:36:29;;;;;;;;;;;;;;;27.24;35.87;99962.47;5097862;28;966;-27
2021/08/07 04:38:55;;;;;;;;;;;;;;;27.24;36.20;99967.88;5097923;28;845;-28
2021/08/07 04:41:20;;;;;;;;;;;;;;;26.96;36.54;99972.28;5087196;28;1107;-33
2021/08/07 04:43:45;;;;;;;;;;;;;;;27.35;36.12;99974.53;5077668;28;788;-28
2021/08/07 04:46:11;;;;;;;;;;;;;;;27.43;35.64;99977.03;5076896;28;779;-26
2021/08/07 04:48:36;;;;;;;;;;;;;;;27.60;35.76;99984.75;5077449;28;1959;-27
2021/08/07 04:51:01;;;;;;;;;;;;;;;27.51;35.47;99987.66;5091589;28;1003;-32
2021/08/07 04:53:27;;;;;;;;;;;;;;;27.24;36.25;99990.28;5097060;28;871;-30
2021/08/07 04:55:52;;;;;;;;;;;;;;;27.42;35.98;99997.00;5097174;28;1360;-32
2021/08/07 04:58:18;;;;;;;;;;;;;;;27.49;35.94;99997.00;5097537;28;797;-34
2021/08/07 05:00:43;;;;;;;;;;;;;;;26.85;36.81;99997.97;5095470;28;1146;-35
2021/08/07 05:03:08;;;;;;;;;;;;;;;26.69;37.22;100004.53;5097429;28;787;-34
2021/08/07 05:05:33;;;;;;;;;;;;;;;26.64;37.65;100013.22;5096714;28;974;-36
2021/08/07 05:07:59;;;;;;;;;;;;;;;26.68;37.34;100016.34;5096708;28;1967;-34
2021/08/07 05:10:24;;;;;;;;;;;;;;;26.78;36.99;100010.59;5097562;28;768;-33
2021/08/07 05:12:49;;;;;;;;;;;;;;;26.84;36.58;100000.88;5097064;28;819;-38
2021/08/07 05:15:15;;;;;;;;;;;;;;;26.85;36.92;100021.44;5096784;28;776;-32
2021/08/07 05:17:40;;;;;;;;;;;;;;;27.01;36.75;100028.34;5097195;28;780;-38
2021/08/07 05:20:06;;;;;;;;;;;;;;;27.09;36.59;100027.41;5096636;28;994;-39
2021/08/07 05:22:31;;;;;;;;;;;;;;;26.68;37.22;100034.38;5096843;28;812;-39
2021/08/07 05:24:57;;;;;;;;;;;;;;;26.86;36.93;100050.09;5090014;28;1091;-35
2021/08/07 05:27:22;;;;;;;;;;;;;;;26.76;36.87;100058.50;5096374;28;1509;-33
2021/08/07 05:29:47;;;;;;;;;;;;;;;26.90;36.66;100068.38;5096170;28;1968;-33
2021/08/07 05:32:13;;;;;;;;;;;;;;;27.12;36.47;100072.91;5097001;28;823;-34
2021/08/07 05:34:38;;;;;;;;;;;;;;;27.22;36.45;100083.31;5096034;28;855;-32
2021/08/07 05:37:03;;;;;;;;;;;;;;;27.06;36.71;100088.00;5096197;28;799;-32
2021/08/07 05:39:28;;;;;;;;;;;;;;;27.17;36.19;100088.50;5096453;28;827;-32
2021/08/07 05:41:54;;;;;;;;;;;;;;;27.37;35.82;100094.84;5096275;28;758;-30
2021/08/07 05:44:19;;;;;;;;;;;;;;;27.48;35.60;100090.72;5096185;28;851;-35
2021/08/07 05:46:44;;;;;;;;;;;;;;;27.15;36.12;100091.38;5096518;28;826;-33
2021/08/07 05:49:09;;;;;;;;;;;;;;;27.39;35.85;100090.03;5096755;28;1909;-31
2021/08/07 05:51:35;;;;;;;;;;;;;;;27.71;35.01;100096.88;5095471;28;1006;-36
2021/08/07 05:54:04;;;;;;;;;;;;;;;27.36;36.05;100100.44;5096613;28;819;-36
2021/08/07 05:56:29;;;;;;;;;;;;;;;27.56;35.14;100091.59;5096034;28;1114;-36
2021/08/07 05:58:54;;;;;;;;;;;;;;;27.50;35.22;100098.63;5096436;28;814;-31
2021/08/07 06:01:19;;;;;;;;;;;;;;;27.80;34.82;100106.44;5096243;28;879;-32
2021/08/07 06:03:45;;;;;;;;;;;;;;;27.77;35.01;100104.16;5096298;28;744;-38
2021/08/07 06:06:10;;;;;;;;;;;;;;;28.04;34.30;100103.38;5095253;28;895;-28
2021/08/07 06:08:35;;;;;;;;;;;;;;;28.04;34.66;100109.63;5096312;28;1973;-38
2021/08/07 06:11:01;;;;;;;;;;;;;;;28.11;34.12;100107.75;5096274;28;865;-33
2021/08/07 06:13:26;;;;;;;;;;;;;;;28.20;34.00;100110.25;5090617;28;890;-33
2021/08/07 06:15:51;;;;;;;;;;;;;;;28.26;34.07;100131.06;5096093;28;799;-33
2021/08/07 06:18:17;;;;;;;;;;;;;;;28.22;34.14;100119.00;5095721;28;802;-33
2021/08/07 06:20:42;;;;;;;;;;;;;;;27.94;33.93;100120.00;5096259;28;942;-33
2021/08/07 06:23:07;;;;;;;;;;;;;;;28.12;33.67;100124.81;5095255;28;882;-33
2021/08/07 06:25:32;;;;;;;;;;;;;;;28.20;33.71;100130.03;5085533;28;895;-30
2021/08/07 06:27:58;;;;;;;;;;;;;;;28.14;33.76;100140.84;5096082;28;799;-29
2021/08/07 06:30:24;;;;;;;;;;;;;;;28.28;33.39;100147.94;5095649;28;1898;-33
2021/08/07 06:32:49;;;;;;;;;;;;;;;28.50;33.18;100146.94;5096014;28;922;-39
2021/08/07 06:35:14;;;;;;;;;;;;;;;28.66;33.03;100138.41;5096064;28;1010;-32
2021/08/07 06:37:40;;;;;;;;;;;;;;;28.43;33.54;100147.78;5093944;28;2165;-40
2021/08/07 06:40:05;;;;;;;;;;;;;;;28.68;33.13;100154.44;5096324;28;734;-38
2021/08/07 06:42:31;;;;;;;;;;;;;;;28.88;33.22;100164.44;5095564;28;846;-32
2021/08/07 06:44:56;;;;;;;;;;;;;;;29.13;33.11;100167.34;5095589;28;799;-38
2021/08/07 06:47:22;;;;;;;;;;;;;;;29.13;34.15;100158.41;5095722;28;783;-36
2021/08/07 06:49:47;;;;;;;;;;;;;;;28.94;33.56;100153.59;5095557;28;1963;-29
2021/08/07 06:52:13;;;;;;;;;;;;;;;28.98;33.16;100142.38;5097161;28;819;-30
2021/08/07 06:54:38;;;;;;;;;;;;;;;29.06;32.88;100142.16;5099288;28;1161;-30
2021/08/07 06:57:04;;;;;;;;;;;;;;;29.09;32.89;100139.03;5099491;28;755;-29
2021/08/07 06:59:29;;;;;;;;;;;;;;;28.95;32.69;100144.44;5099070;28;848;-38
2021/08/07 07:01:55;;;;;;;;;;;;;;;29.06;32.35;100142.16;5099451;28;1531;-31
2021/08/07 07:04:20;;;;;;;;;;;;;;;28.92;32.63;100152.97;5099525;28;974;-29
2021/08/07 07:06:45;;;;;;;;;;;;;;;29.03;32.19;100140.69;5098642;28;946;-37
2021/08/07 07:09:10;;;;;;;;;;;;;;;29.27;32.04;100137.53;5099115;28;1978;-39
2021/08/07 07:11:37;;;;;;;;;;;;;;;29.28;32.23;100150.03;5099539;28;812;-30
2021/08/07 07:14:02;;;;;;;;;;;;;;;29.38;32.29;100144.97;5099069;28;811;-32
2021/08/07 07:16:29;;;;;;;;;;;;;;;29.42;32.26;100135.41;5099354;28;808;-31
2021/08/07 07:18:55;;;;;;;;;;;;;;;29.56;31.03;100140.78;5099088;28;817;-32
2021/08/07 07:21:20;;;;;;;;;;;;;;;29.32;31.35;100143.13;5098249;28;1002;-31
2021/08/07 07:23:45;;;;;;;;;;;;;;;29.31;31.50;100146.91;5099358;28;816;-29
2021/08/07 07:26:10;;;;;;;;;;;;;;;29.29;31.40;100133.56;5061723;28;1215;-31
2021/08/07 07:28:36;;;;;;;;;;;;;;;29.28;31.18;100144.63;5078217;28;1957;-30
2021/08/07 07:31:01;;;;;;;;;;;;;;;29.56;31.02;100146.19;5078907;28;824;-33
2021/08/07 07:33:26;;;;;;;;;;;;;;;29.68;31.76;100138.22;5078475;28;819;-30
2021/08/07 07:35:52;;;;;;;;;;;;;;;29.77;31.46;100153.22;5091130;28;962;-31
2021/08/07 07:38:17;;;;;;;;;;;;;;;29.76;31.94;100156.97;5098596;28;864;-31
2021/08/07 07:40:43;;;;;;;;;;;;;;;29.81;31.64;100157.16;5098764;28;760;-30
2021/08/07 07:43:08;;;;;;;;;;;;;;;29.81;31.62;100148.19;5080167;28;1077;-29
2021/08/07 07:45:33;;;;;;;;;;;;;;;29.80;31.15;100144.66;5098534;28;1426;-32
2021/08/07 07:47:59;;;;;;;;;;;;;;;29.80;30.83;100144.66;5098046;28;809;-33
2021/08/07 07:50:24;;;;;;;;;;;;;;;29.88;30.43;100135.41;5098126;28;1968;-30
2021/08/07 07:52:49;;;;;;;;;;;;;;;29.81;30.91;100135.47;5098772;28;787;-34
2021/08/07 07:55:14;;;;;;;;;;;;;;;29.90;30.42;100143.34;5098152;28;1074;-34
2021/08/07 07:57:40;;;;;;;;;;;;;;;29.93;30.22;100157.28;5097940;28;536;-33
2021/08/07 08:00:05;;;;;;;;;;;;;;;30.00;30.28;100159.97;5098294;28;768;-29
2021/08/07 08:02:31;;;;;;;;;;;;;;;30.02;30.37;100168.72;5098334;28;931;-32
2021/08/07 08:04:56;;;;;;;;;;;;;;;30.01;29.80;100144.53;5097149;28;1025;-27
2021/08/07 08:07:21;;;;;;;;;;;;;;;30.00;30.59;100165.41;5098297;28;827;-29
2021/08/07 08:09:46;;;;;;;;;;;;;;;30.10;30.38;100155.94;5098083;28;2273;-28
2021/08/07 08:12:12;;;;;;;;;;;;;;;30.12;30.29;100164.69;5097825;28;819;-30
2021/08/07 08:14:37;;;;;;;;;;;;;;;30.09;29.72;100168.69;5097988;28;1455;-33
2021/08/07 08:17:02;;;;;;;;;;;;;;;30.27;29.72;100183.44;5098331;28;863;-30
2021/08/07 08:19:28;;;;;;;;;;;;;;;30.15;30.38;100185.97;5078669;28;1498;-28
2021/08/07 08:21:53;;;;;;;;;;;;;;;30.22;30.78;100189.50;5097952;28;720;-31
2021/08/07 08:24:18;;;;;;;;;;;;;;;30.34;30.42;100183.38;5094453;28;1119;-30
2021/08/07 08:26:44;;;;;;;;;;;;;;;30.38;29.62;100192.75;5077465;28;804;-28
2021/08/07 08:29:09;;;;;;;;;;;;;;;30.43;29.71;100191.03;5077124;28;1909;-34
2021/08/07 08:31:34;;;;;;;;;;;;;;;30.47;29.98;100188.72;5077917;28;772;-29
2021/08/07 08:33:59;;;;;;;;;;;;;;;30.49;30.21;100177.66;5077666;28;844;-30
2021/08/07 08:36:25;;;;;;;;;;;;;;;30.47;30.63;100194.16;5094728;28;955;-31
2021/08/07 08:38:50;;;;;;;;;;;;;;;30.50;30.50;100184.72;5097421;28;842;-35
2021/08/07 08:41:15;;;;;;;;;;;;;;;30.58;29.90;100195.31;5097787;28;739;-27
2021/08/07 08:43:42;;;;;;;;;;;;;;;30.68;29.92;100186.69;5097290;28;799;-31
2021/08/07 08:46:08;;;;;;;;;;;;;;;30.64;30.41;100197.16;5097604;28;864;-32
2021/08/07 08:48:34;;;;;;;;;;;;;;;30.74;31.43;100191.25;5079566;28;1972;-31
2021/08/07 08:50:59;;;;;;;;;;;;;;;30.79;31.11;100199.56;5077291;28;1141;-30
2021/08/07 08:53:25;;;;;;;;;;;;;;;30.86;31.02;100194.09;5097594;28;894;-29
2021/08/07 08:55:51;;;;;;;;;;;;;;;30.84;29.56;100206.22;5097150;28;1231;-31
2021/08/07 08:58:16;;;;;;;;;;;;;;;30.79;30.62;100207.69;5097069;28;772;-31
2021/08/07 09:00:41;;;;;;;;;;;;;;;30.66;32.41;100205.09;5097225;28;790;-32
2021/08/07 09:03:07;;;;;;;;;;;;;;;30.53;31.71;100212.25;5096996;28;788;-30
2021/08/07 09:05:32;;;;;;;;;;;;;;;30.55;32.05;100203.91;5096588;28;970;-30
2021/08/07 09:07:57;;;;;;;;;;;;;;;30.48;33.08;100216.69;5097273;28;740;-36
2021/08/07 09:10:23;;;;;;;;;;;;;;;30.62;31.99;100218.25;5096847;28;1979;-32
2021/08/07 09:12:52;;;;;;;;;;;;;;;30.71;31.56;100226.97;5096704;28;752;-27
2021/08/07 09:15:23;;;;;;;;;;;;;;;30.78;31.67;100219.59;5095943;28;867;-32
2021/08/07 09:17:49;;;;;;;;;;;;;;;30.92;30.94;100216.81;5096890;28;784;-30
2021/08/07 09:20:14;;;;;;;;;;;;;;;30.83;30.01;100216.25;5095922;28;918;-33
2021/08/07 09:22:39;;;;;;;;;;;;;;;30.94;29.92;100217.44;5079036;28;764;-29
2021/08/07 09:25:08;;;;;;;;;;;;;;;30.93;29.16;100218.47;5078584;28;1191;-32
2021/08/07 09:27:40;;;;;;;;;;;;;;;30.99;29.51;100233.88;5096094;28;827;-29
2021/08/07 09:30:18;;;;;;;;;;;;;;;30.95;29.21;100226.41;5096780;28;1917;-30
2021/08/07 09:32:49;;;;;;;;;;;;;;;30.96;29.72;100231.63;5096871;28;779;-28
2021/08/07 09:35:20;;;;;;;;;;;;;;;31.14;30.32;100230.00;5096009;28;958;-29
2021/08/07 09:37:45;;;;;;;;;;;;;;;31.15;29.18;100228.91;5096795;28;2393;-32
2021/08/07 09:40:11;;;;;;;;;;;;;;;31.21;29.33;100238.06;5096485;28;768;-31
2021/08/07 09:42:56;;;;;;;;;;;;;;;31.21;28.83;100238.91;5096150;28;859;-30
2021/08/07 09:45:22;;;;;;;;;;;;;;;31.28;28.71;100258.69;5096109;28;1613;-32
2021/08/07 09:47:58;;;;;;;;;;;;;;;31.24;28.36;100260.22;5096431;28;831;-32
2021/08/07 09:50:24;;;;;;;;;;;;;;;31.31;28.73;100248.44;5093306;28;1972;-28
2021/08/07 09:52:49;;;;;;;;;;;;;;;31.24;31.48;100245.78;5076384;28;796;-35
2021/08/07 09:55:15;;;;;;;;;;;;;;;31.28;30.03;100255.97;5067462;28;1207;-33
2021/08/07 09:57:40;;;;;;;;;;;;;;;31.28;28.85;100255.16;5078514;28;864;-32
2021/08/07 10:00:06;;;;;;;;;;;;;;;31.07;31.62;100262.66;5096242;28;782;-31
2021/08/07 10:02:32;;;;;;;;;;;;;;;30.90;30.62;100267.78;5096454;28;876;-34
2021/08/07 10:05:00;;;;;;;;;;;;;;;30.67;28.59;100242.03;5101476;28;982;-32
2021/08/07 10:07:25;;;;;;;;;;;;;;;30.48;29.89;100250.09;5116331;28;859;-29
2021/08/07 10:09:51;;;;;;;;;;;;;;;30.39;30.82;100263.09;5116928;28;1926;-39
2021/08/07 10:12:16;;;;;;;;;;;;;;;30.27;31.59;100270.25;5116523;28;778;-36
2021/08/07 10:14:42;;;;;;;;;;;;;;;30.30;31.77;100257.09;5116692;28;832;-33
2021/08/07 10:17:09;;;;;;;;;;;;;;;30.29;32.10;100255.44;5117199;28;813;-34
2021/08/07 10:19:35;;;;;;;;;;;;;;;30.25;32.49;100267.75;5116319;28;918;-32
2021/08/07 10:22:00;;;;;;;;;;;;;;;30.18;32.60;100266.91;5115979;28;866;-39
2021/08/07 10:24:26;;;;;;;;;;;;;;;30.17;32.78;100263.38;5098949;28;1209;-33
2021/08/07 10:26:52;;;;;;;;;;;;;;;30.13;32.94;100274.88;5117494;28;779;-33
2021/08/07 10:29:17;;;;;;;;;;;;;;;30.02;32.97;100266.38;5102851;28;1910;-32
2021/08/07 10:31:42;;;;;;;;;;;;;;;30.03;33.35;100261.78;5102620;28;767;-39
2021/08/07 10:34:11;;;;;;;;;;;;;;;29.99;33.34;100260.53;5101930;28;878;-32
2021/08/07 10:36:36;;;;;;;;;;;;;;;29.97;33.59;100255.31;5120480;28;997;-33
2021/08/07 10:39:02;;;;;;;;;;;;;;;30.08;33.58;100251.09;5120823;28;731;-36
2021/08/07 10:41:28;;;;;;;;;;;;;;;30.03;33.70;100257.16;5120066;28;721;-32
2021/08/07 10:43:53;;;;;;;;;;;;;;;30.03;33.70;100264.50;5120929;28;720;-38
2021/08/07 10:46:19;;;;;;;;;;;;;;;30.01;33.95;100267.38;5120310;28;726;-32
2021/08/07 10:48:45;;;;;;;;;;;;;;;30.12;33.90;100260.47;5119933;28;1905;-38
2021/08/07 10:51:19;;;;;;;;;;;;;;;30.02;34.00;100254.69;5119896;28;950;-37
2021/08/07 10:53:53;;;;;;;;;;;;;;;30.12;33.98;100259.63;5120590;28;822;-30
2021/08/07 10:56:30;;;;;;;;;;;;;;;30.10;34.17;100262.56;5101469;28;1336;-28
2021/08/07 10:58:56;;;;;;;;;;;;;;;30.00;34.46;100252.19;5099808;28;742;-35
2021/08/07 11:01:25;;;;;;;;;;;;;;;29.98;34.47;100256.16;5099940;28;742;-31
2021/08/07 11:03:50;;;;;;;;;;;;;;;29.92;34.76;100250.56;5099436;28;757;-35
2021/08/07 11:06:16;;;;;;;;;;;;;;;29.87;34.87;100254.94;5099520;28;1029;-33
2021/08/07 11:08:41;;;;;;;;;;;;;;;29.99;34.46;100250.53;5099652;28;1909;-37
2021/08/07 11:11:25;;;;;;;;;;;;;;;29.96;34.63;100244.69;5081469;28;776;-33
2021/08/07 11:13:50;;;;;;;;;;;;;;;29.98;34.62;100243.41;5099714;28;776;-36
2021/08/07 11:16:16;;;;;;;;;;;;;;;29.97;34.64;100247.19;5099412;28;748;-36
2021/08/07 11:18:41;;;;;;;;;;;;;;;29.88;34.95;100257.44;5098936;28;871;-38
2021/08/07 11:21:06;;;;;;;;;;;;;;;29.88;35.13;100257.44;5099272;28;950;-34
2021/08/07 11:23:35;;;;;;;;;;;;;;;29.87;35.24;100249.50;5099142;28;820;-38
2021/08/07 11:26:01;;;;;;;;;;;;;;;29.92;35.13;100249.72;5081385;28;1246;-34
2021/08/07 11:28:26;;;;;;;;;;;;;;;29.88;35.25;100243.88;5079103;28;1967;-38
2021/08/07 11:31:11;;;;;;;;;;;;;;;29.88;35.25;100237.66;5078572;28;757;-39
2021/08/07 11:33:36;;;;;;;;;;;;;;;29.96;35.11;100239.28;5078575;28;745;-35
2021/08/07 11:36:01;;;;;;;;;;;;;;;29.97;35.33;100249.91;5092862;28;1073;-40
2021/08/07 11:38:27;;;;;;;;;;;;;;;29.98;35.58;100245.31;5097617;28;843;-31
2021/08/07 11:40:53;;;;;;;;;;;;;;;29.87;35.47;100236.81;5098851;28;775;-40
2021/08/07 11:43:19;;;;;;;;;;;;;;;29.97;35.32;100241.75;5098806;28;775;-31
2021/08/07 11:45:47;;;;;;;;;;;;;;;29.90;35.68;100247.22;5098614;28;950;-40
2021/08/07 11:48:22;;;;;;;;;;;;;;;29.77;36.04;100242.69;5098724;28;768;-38
2021/08/07 11:50:47;;;;;;;;;;;;;;;29.84;35.90;100234.53;5098369;28;966;-32
2021/08/07 11:53:13;;;;;;;;;;;;;;;29.51;36.81;100232.72;5078092;28;1290;-38
2021/08/07 11:55:38;;;;;;;;;;;;;;;29.41;36.87;100228.53;5110894;28;1403;-34
2021/08/07 11:58:04;;;;;;;;;;;;;;;29.44;36.75;100232.72;5119025;28;754;-33
2021/08/07 12:00:31;;;;;;;;;;;;;;;29.45;36.42;100227.09;5119168;28;767;-30
2021/08/07 12:03:03;;;;;;;;;;;;;;;29.33;36.52;100223.34;5118037;28;839;-32
2021/08/07 12:05:28;;;;;;;;;;;;;;;29.52;36.52;100235.22;5118258;28;989;-26
2021/08/07 12:07:57;;;;;;;;;;;;;;;29.08;37.15;100240.25;5119269;28;786;-39
2021/08/07 12:10:23;;;;;;;;;;;;;;;29.13;36.89;100235.03;5118418;28;1991;-33
2021/08/07 12:12:48;;;;;;;;;;;;;;;28.98;37.30;100229.84;5118530;28;971;-31
2021/08/07 12:15:13;;;;;;;;;;;;;;;28.89;37.52;100234.63;5118969;28;822;-31
2021/08/07 12:17:48;;;;;;;;;;;;;;;29.01;37.15;100240.25;5117976;28;844;-30
2021/08/07 12:20:13;;;;;;;;;;;;;;;28.98;37.43;100237.97;5118163;28;961;-36
2021/08/07 12:22:57;;;;;;;;;;;;;;;29.17;36.99;100241.72;5118549;28;874;-36
2021/08/07 12:25:22;;;;;;;;;;;;;;;29.21;36.68;100256.50;5105886;28;1114;-38
2021/08/07 12:28:17;;;;;;;;;;;;;;;29.20;36.58;100249.44;5098095;28;827;-24
2021/08/07 12:30:55;;;;;;;;;;;;;;;29.17;36.58;100260.69;5079792;28;1395;-32
2021/08/07 12:33:24;;;;;;;;;;;;;;;29.24;36.42;100263.38;5097422;28;816;-37
2021/08/07 12:35:49;;;;;;;;;;;;;;;28.66;36.44;100262.06;5110397;28;959;-32
2021/08/07 12:38:16;;;;;;;;;;;;;;;28.98;36.99;100264.22;5118939;28;751;-29
2021/08/07 12:40:42;;;;;;;;;;;;;;;29.17;36.33;100265.25;5117861;28;740;-27
2021/08/07 12:43:07;;;;;;;;;;;;;;;29.15;36.21;100265.47;5117789;28;834;-27
2021/08/07 12:45:32;;;;;;;;;;;;;;;29.06;36.44;100262.13;5118079;28;736;-31
2021/08/07 12:47:57;;;;;;;;;;;;;;;29.21;36.15;100258.41;5117754;28;794;-28
2021/08/07 12:50:25;;;;;;;;;;;;;;;29.09;36.44;100256.28;5117315;28;1906;-25
2021/08/07 12:52:51;;;;;;;;;;;;;;;29.36;35.88;100270.88;5117987;28;808;-35